createdAt,value
2023-03-17T00:01:59.844Z,39.19
2023-03-17T00:04:31.733Z,39.16
2023-03-17T00:07:03.008Z,39.11
2023-03-17T00:09:34.218Z,39.16
2023-03-17T00:12:12.354Z,39.29
2023-03-17T00:14:44.615Z,39.17
2023-03-17T00:17:16.978Z,39.13
2023-03-17T00:19:48.420Z,39.00
2023-03-17T00:22:22.330Z,39.00
2023-03-17T00:24:53.551Z,38.98
2023-03-17T00:27:25.334Z,38.92
2023-03-17T00:29:56.798Z,38.93
2023-03-17T00:32:27.944Z,39.04
2023-03-17T00:34:59.289Z,39.03
2023-03-17T00:37:30.864Z,38.88
2023-03-17T00:40:02.997Z,38.88
2023-03-17T00:42:34.229Z,38.91
2023-03-17T00:45:05.845Z,38.91
2023-03-17T00:47:38.806Z,39.04
2023-03-17T00:50:15.676Z,39.15
2023-03-17T00:52:47.613Z,39.22
2023-03-17T00:55:19.651Z,39.07
2023-03-17T00:57:53.760Z,39.02
2023-03-17T01:00:29.814Z,39.22
2023-03-17T01:03:01.320Z,39.21
2023-03-17T01:05:32.870Z,39.27
2023-03-17T01:08:06.057Z,39.26
2023-03-17T01:10:37.895Z,39.27
2023-03-17T01:13:12.322Z,39.36
2023-03-17T01:15:48.530Z,39.40
2023-03-17T01:18:22.081Z,39.63
2023-03-17T01:20:54.181Z,39.57
2023-03-17T01:23:25.475Z,39.65
2023-03-17T01:25:57.812Z,39.66
2023-03-17T01:28:29.327Z,39.70
2023-03-17T01:31:00.681Z,39.68
2023-03-17T01:33:32.120Z,39.84
2023-03-17T01:36:04.115Z,39.78
2023-03-17T01:38:36.048Z,39.75
2023-03-17T01:41:07.582Z,39.94
2023-03-17T01:43:39.822Z,40.04
2023-03-17T01:46:29.776Z,39.77
2023-03-17T01:49:17.242Z,39.74
2023-03-17T01:51:55.993Z,39.67
2023-03-17T01:54:31.705Z,39.80
2023-03-17T01:57:10.726Z,39.81
2023-03-17T01:59:48.101Z,39.56
2023-03-17T02:02:24.630Z,39.53
2023-03-17T02:04:56.906Z,39.59
2023-03-17T02:07:29.287Z,39.56
2023-03-17T02:10:01.061Z,39.55
2023-03-17T02:12:32.541Z,39.36
2023-03-17T02:15:05.445Z,39.41
2023-03-17T02:17:38.335Z,39.41
2023-03-17T02:20:36.338Z,39.31
2023-03-17T02:23:08.909Z,39.32
2023-03-17T02:25:41.051Z,39.27
2023-03-17T02:28:16.272Z,39.23
2023-03-17T02:30:48.067Z,39.30
2023-03-17T02:33:21.036Z,39.26
2023-03-17T02:35:53.077Z,39.38
2023-03-17T02:38:24.565Z,39.23
2023-03-17T02:40:56.247Z,39.15
2023-03-17T02:43:27.464Z,39.33
2023-03-17T02:46:01.419Z,39.37
2023-03-17T02:48:33.352Z,39.41
2023-03-17T02:51:04.634Z,39.33
2023-03-17T02:53:36.856Z,39.26
2023-03-17T02:56:09.944Z,39.30
2023-03-17T02:58:41.212Z,39.27
2023-03-17T03:01:13.212Z,39.34
2023-03-17T03:03:44.748Z,39.28
2023-03-17T03:06:16.507Z,39.27
2023-03-17T03:08:48.148Z,39.31
2023-03-17T03:11:19.819Z,39.42
2023-03-17T03:13:52.137Z,39.37
2023-03-17T03:16:23.467Z,39.50
2023-03-17T03:18:54.947Z,39.45
2023-03-17T03:21:26.598Z,39.43
2023-03-17T03:23:58.138Z,39.72
2023-03-17T03:26:29.633Z,39.66
2023-03-17T03:29:00.939Z,39.70
2023-03-17T03:31:32.009Z,39.86
2023-03-17T03:34:03.353Z,39.81
2023-03-17T03:36:34.564Z,39.93
2023-03-17T03:39:06.147Z,40.01
2023-03-17T03:41:37.445Z,39.83
2023-03-17T03:44:08.836Z,39.84
2023-03-17T03:46:40.209Z,39.82
2023-03-17T03:49:11.658Z,39.87
2023-03-17T03:51:43.093Z,39.93
2023-03-17T03:54:14.583Z,40.03
2023-03-17T03:56:45.874Z,40.03
2023-03-17T03:59:17.778Z,39.92
2023-03-17T04:01:49.308Z,39.97
2023-03-17T04:04:20.716Z,39.94
2023-03-17T04:06:52.648Z,39.93
2023-03-17T04:09:24.410Z,39.85
2023-03-17T04:11:56.004Z,39.90
2023-03-17T04:14:28.693Z,40.06
2023-03-17T04:16:59.830Z,40.11
2023-03-17T04:19:31.477Z,40.06
2023-03-17T04:22:05.393Z,40.01
2023-03-17T04:24:37.278Z,39.95
2023-03-17T04:27:09.401Z,40.02
2023-03-17T04:29:40.778Z,40.02
2023-03-17T04:32:13.548Z,39.98
2023-03-17T04:34:45.265Z,39.77
2023-03-17T04:37:16.785Z,39.98
2023-03-17T04:39:48.375Z,39.89
2023-03-17T04:42:19.768Z,39.95
2023-03-17T04:44:51.513Z,39.92
2023-03-17T04:47:22.769Z,39.87
2023-03-17T04:49:54.227Z,39.94
2023-03-17T04:52:25.481Z,39.89
2023-03-17T04:54:57.024Z,39.89
2023-03-17T04:57:28.388Z,39.90
2023-03-17T04:59:59.599Z,39.92
2023-03-17T05:02:30.753Z,39.91
2023-03-17T05:05:02.508Z,40.00
2023-03-17T05:07:34.261Z,40.04
2023-03-17T05:10:06.796Z,40.16
2023-03-17T05:12:37.984Z,40.22
2023-03-17T05:15:11.284Z,40.22
2023-03-17T05:17:42.667Z,40.24
2023-03-17T05:20:15.689Z,40.09
2023-03-17T05:22:47.285Z,40.29
2023-03-17T05:25:19.476Z,40.31
2023-03-17T05:27:50.460Z,40.33
2023-03-17T05:30:22.761Z,40.22
2023-03-17T05:32:55.581Z,40.21
2023-03-17T05:35:27.769Z,40.11
2023-03-17T05:37:59.105Z,40.11
2023-03-17T05:40:30.645Z,40.14
2023-03-17T05:43:02.529Z,40.29
2023-03-17T05:45:34.974Z,40.49
2023-03-17T05:48:08.078Z,40.53
2023-03-17T05:50:39.973Z,40.18
2023-03-17T05:53:11.557Z,40.33
2023-03-17T05:55:42.914Z,40.29
2023-03-17T05:58:15.879Z,40.11
2023-03-17T06:00:47.519Z,40.00
2023-03-17T06:03:18.521Z,39.84
2023-03-17T06:05:49.667Z,39.97
2023-03-17T06:08:21.571Z,39.87
2023-03-17T06:10:53.478Z,39.67
2023-03-17T06:13:24.547Z,39.65
2023-03-17T06:15:57.555Z,39.71
2023-03-17T06:18:28.697Z,39.44
2023-03-17T06:21:00.267Z,39.47
2023-03-17T06:23:31.508Z,39.35
2023-03-17T06:26:03.257Z,39.12
2023-03-17T06:28:34.972Z,39.01
2023-03-17T06:31:07.467Z,38.93
2023-03-17T06:33:39.055Z,38.88
2023-03-17T06:36:11.136Z,38.90
2023-03-17T06:38:42.465Z,38.79
2023-03-17T06:41:13.907Z,38.64
2023-03-17T06:43:45.178Z,38.46
2023-03-17T06:46:16.826Z,38.43
2023-03-17T06:48:48.158Z,38.44
2023-03-17T06:51:19.325Z,38.47
2023-03-17T06:53:50.869Z,38.46
2023-03-17T06:56:29.786Z,38.53
2023-03-17T06:59:02.250Z,37.83
2023-03-17T07:01:33.825Z,37.67
2023-03-17T07:04:05.630Z,37.85
2023-03-17T07:06:37.214Z,38.27
2023-03-17T07:09:10.258Z,38.33
2023-03-17T07:11:41.884Z,38.37
2023-03-17T07:14:13.923Z,37.38
2023-03-17T07:16:45.419Z,37.28
2023-03-17T07:19:16.958Z,37.25
2023-03-17T07:21:48.019Z,37.30
2023-03-17T07:24:19.556Z,37.33
2023-03-17T07:26:50.824Z,37.33
2023-03-17T07:29:22.918Z,37.55
2023-03-17T07:31:54.829Z,37.42
2023-03-17T07:34:26.324Z,37.77
2023-03-17T07:36:57.974Z,37.99
2023-03-17T07:39:28.977Z,37.90
2023-03-17T07:42:00.299Z,38.26
2023-03-17T07:44:33.509Z,38.36
2023-03-17T07:47:04.551Z,38.19
2023-03-17T07:49:41.547Z,38.22
2023-03-17T07:52:14.078Z,38.21
2023-03-17T07:54:45.467Z,38.88
2023-03-17T07:57:17.625Z,38.91
2023-03-17T07:59:49.323Z,38.69
2023-03-17T08:02:21.292Z,38.24
2023-03-17T08:04:54.032Z,38.05
2023-03-17T08:07:26.000Z,37.91
2023-03-17T08:09:57.807Z,37.78
2023-03-17T08:12:29.345Z,37.67
2023-03-17T08:15:00.792Z,38.04
2023-03-17T08:17:32.121Z,38.08
2023-03-17T08:20:05.495Z,37.34
2023-03-17T08:22:48.204Z,36.99
2023-03-17T08:25:19.558Z,36.84
2023-03-17T08:27:50.743Z,36.87
2023-03-17T08:30:23.323Z,37.53
2023-03-17T08:32:56.177Z,38.01
2023-03-17T08:35:27.685Z,37.35
2023-03-17T08:38:00.131Z,37.38
2023-03-17T08:40:32.259Z,37.64
2023-03-17T08:43:04.983Z,37.76
2023-03-17T08:45:36.692Z,37.45
2023-03-17T08:48:08.595Z,37.58
2023-03-17T08:50:39.943Z,36.53
2023-03-17T08:53:10.937Z,36.41
2023-03-17T08:55:42.528Z,36.61
2023-03-17T08:58:13.844Z,35.45
2023-03-17T09:00:47.118Z,35.65
2023-03-17T09:03:18.941Z,35.16
2023-03-17T09:05:51.566Z,35.32
2023-03-17T09:08:22.935Z,35.12
2023-03-17T09:10:54.618Z,34.70
2023-03-17T09:13:25.834Z,34.18
2023-03-17T09:15:57.426Z,33.61
2023-03-17T09:18:31.362Z,33.24
2023-03-17T09:21:03.634Z,32.85
2023-03-17T09:23:35.173Z,32.52
2023-03-17T09:26:06.825Z,32.55
2023-03-17T09:28:38.377Z,31.85
2023-03-17T09:31:11.580Z,31.47
2023-03-17T09:33:43.463Z,31.12
2023-03-17T09:36:14.856Z,31.36
2023-03-17T09:38:46.106Z,30.72
2023-03-17T09:41:57.478Z,31.00
2023-03-17T09:44:48.140Z,29.60
2023-03-17T09:47:50.969Z,29.31
2023-03-17T09:50:26.942Z,28.85
2023-03-17T09:53:03.826Z,28.74
2023-03-17T09:55:38.074Z,28.34
2023-03-17T09:58:12.112Z,27.96
2023-03-17T10:00:44.424Z,27.66
2023-03-17T10:03:17.419Z,27.45
2023-03-17T10:05:48.692Z,27.44
2023-03-17T10:08:31.519Z,27.31
2023-03-17T10:11:11.195Z,27.14
2023-03-17T10:13:55.961Z,26.93
2023-03-17T10:16:35.645Z,26.88
2023-03-17T10:19:17.568Z,26.58
2023-03-17T10:21:55.148Z,26.58
2023-03-17T10:24:29.110Z,26.47
2023-03-17T10:27:06.930Z,26.42
2023-03-17T10:29:38.671Z,26.13
2023-03-17T10:32:13.068Z,26.16
2023-03-17T10:34:44.992Z,26.32
2023-03-17T10:37:19.466Z,26.27
2023-03-17T10:39:52.569Z,26.05
2023-03-17T10:42:26.330Z,25.91
2023-03-17T10:44:59.903Z,25.92
2023-03-17T10:47:35.837Z,25.87
2023-03-17T10:50:22.366Z,25.81
2023-03-17T10:52:59.404Z,25.60
2023-03-17T10:55:33.759Z,25.52
2023-03-17T10:58:09.558Z,25.55
2023-03-17T11:00:41.766Z,25.54
2023-03-17T11:03:23.040Z,25.36
2023-03-17T11:06:02.618Z,25.38
2023-03-17T11:08:37.157Z,25.35
2023-03-17T11:11:22.496Z,25.18
2023-03-17T11:14:02.609Z,25.22
2023-03-17T11:16:36.582Z,25.02
2023-03-17T11:19:13.198Z,25.30
2023-03-17T11:21:54.778Z,25.20
2023-03-17T11:24:33.476Z,24.85
2023-03-17T11:27:12.864Z,24.90
2023-03-17T11:29:54.543Z,24.73
2023-03-17T11:32:33.025Z,24.71
2023-03-17T11:35:40.238Z,24.50
2023-03-17T11:38:24.666Z,24.39
2023-03-17T11:41:31.862Z,24.39
2023-03-17T11:44:18.608Z,24.25
2023-03-17T11:46:55.665Z,24.21
2023-03-17T11:49:34.618Z,24.30
2023-03-17T11:52:13.919Z,24.11
2023-03-17T11:54:54.393Z,24.17
2023-03-17T11:57:33.612Z,24.09
2023-03-17T12:00:09.293Z,24.03
2023-03-17T12:02:47.691Z,24.00
2023-03-17T12:05:24.180Z,24.07
2023-03-17T12:07:59.115Z,23.93
2023-03-17T12:10:37.813Z,23.92
2023-03-17T12:13:14.636Z,23.70
2023-03-17T12:15:49.738Z,23.69
2023-03-17T12:18:26.706Z,23.93
2023-03-17T12:21:04.556Z,23.84
2023-03-17T12:23:42.334Z,24.11
2023-03-17T12:26:16.615Z,24.24
2023-03-17T12:28:55.666Z,23.84
2023-03-17T12:31:32.800Z,24.20
2023-03-17T12:34:11.647Z,23.80
2023-03-17T12:36:44.209Z,24.05
2023-03-17T12:39:19.338Z,24.80
2023-03-17T12:42:15.520Z,24.69
2023-03-17T12:45:01.779Z,24.38
2023-03-17T12:47:46.888Z,24.45
2023-03-17T12:50:43.928Z,24.39
2023-03-17T12:53:27.699Z,24.09
2023-03-17T12:56:03.909Z,24.52
2023-03-17T12:58:40.294Z,25.62
2023-03-17T13:01:23.112Z,24.95
2023-03-17T13:04:18.099Z,24.83
2023-03-17T13:07:00.956Z,24.35
2023-03-17T13:09:45.267Z,24.47
2023-03-17T13:13:03.748Z,25.71
2023-03-17T13:15:53.776Z,28.02
2023-03-17T13:19:07.215Z,28.70
2023-03-17T13:21:39.131Z,29.28
2023-03-17T13:24:42.689Z,29.96
2023-03-17T13:27:16.153Z,30.47
2023-03-17T13:29:50.188Z,30.58
2023-03-17T13:32:38.274Z,31.07
2023-03-17T13:35:48.983Z,30.85
2023-03-17T13:39:15.006Z,31.73
2023-03-17T13:42:18.050Z,32.25
2023-03-17T13:45:11.688Z,32.17
2023-03-17T13:47:44.589Z,32.57
2023-03-17T13:50:23.471Z,32.75
2023-03-17T13:52:58.754Z,34.92
2023-03-17T13:55:42.554Z,35.52
2023-03-17T13:58:27.598Z,35.08
2023-03-17T14:01:06.811Z,34.55
2023-03-17T14:03:43.148Z,33.83
2023-03-17T14:06:16.119Z,34.54
2023-03-17T14:08:52.385Z,33.94
2023-03-17T14:11:37.172Z,34.23
2023-03-17T14:14:32.625Z,34.35
2023-03-17T14:17:12.518Z,34.88
2023-03-17T14:20:00.507Z,35.08
2023-03-17T14:22:31.831Z,35.52
2023-03-17T14:25:08.003Z,34.99
2023-03-17T14:27:39.717Z,35.01
2023-03-17T14:30:22.174Z,34.66
2023-03-17T14:33:01.480Z,34.92
2023-03-17T14:35:39.189Z,35.27
2023-03-17T14:38:19.165Z,36.58
2023-03-17T14:40:51.569Z,36.51
2023-03-17T14:43:24.446Z,36.90
2023-03-17T14:46:00.877Z,36.95
2023-03-17T14:48:34.826Z,37.41
2023-03-17T14:51:08.821Z,37.04
2023-03-17T14:53:46.340Z,36.96
2023-03-17T14:56:22.890Z,37.59
2023-03-17T14:58:55.204Z,38.18
2023-03-17T15:01:38.772Z,37.70
2023-03-17T15:04:13.520Z,37.69
2023-03-17T15:06:53.175Z,37.79
2023-03-17T15:09:29.164Z,38.25
2023-03-17T15:12:07.228Z,38.13
2023-03-17T15:14:41.474Z,38.17
2023-03-17T15:17:22.326Z,38.54
2023-03-17T15:19:57.473Z,39.00
2023-03-17T15:25:28.821Z,39.21
2023-03-17T15:28:01.049Z,39.06
2023-03-17T15:30:46.194Z,38.97
2023-03-17T15:33:24.222Z,39.17
2023-03-17T15:35:56.669Z,39.10
2023-03-17T15:38:28.476Z,38.96
2023-03-17T15:41:00.572Z,38.80
2023-03-17T15:43:31.724Z,38.97
2023-03-17T15:46:05.845Z,39.26
2023-03-17T15:48:37.820Z,39.54
2023-03-17T15:51:09.328Z,39.56
2023-03-17T15:53:40.297Z,39.40
2023-03-17T15:56:20.667Z,38.99
2023-03-17T15:58:52.706Z,39.21
2023-03-17T16:01:27.255Z,39.24
2023-03-17T16:03:59.027Z,39.57
2023-03-17T16:06:30.345Z,39.48
2023-03-17T16:09:01.495Z,39.56
2023-03-17T16:11:34.247Z,39.92
2023-03-17T16:14:05.506Z,40.07
2023-03-17T16:16:40.324Z,40.16
2023-03-17T16:19:18.647Z,40.26
2023-03-17T16:21:50.594Z,40.16
2023-03-17T16:24:24.390Z,40.44
2023-03-17T16:26:55.941Z,40.59
2023-03-17T16:29:27.498Z,40.50
2023-03-17T16:31:58.958Z,40.73
2023-03-17T16:34:30.839Z,41.54
2023-03-17T16:37:03.193Z,41.22
2023-03-17T16:39:35.129Z,41.01
2023-03-17T16:42:07.558Z,40.96
2023-03-17T16:44:38.796Z,40.96
2023-03-17T16:47:12.327Z,40.83
2023-03-17T16:49:43.643Z,40.77
2023-03-17T16:52:15.089Z,40.99
2023-03-17T16:54:46.332Z,40.74
2023-03-17T16:57:17.882Z,40.81
2023-03-17T16:59:49.265Z,40.89
2023-03-17T17:02:20.653Z,40.98
2023-03-17T17:04:52.497Z,40.83
2023-03-17T17:07:23.631Z,40.62
2023-03-17T17:09:54.710Z,40.65
2023-03-17T17:12:25.861Z,40.82
2023-03-17T17:14:57.288Z,40.77
2023-03-17T17:17:28.813Z,40.69
2023-03-17T17:20:02.138Z,40.68
2023-03-17T17:22:34.132Z,40.54
2023-03-17T17:25:08.337Z,40.41
2023-03-17T17:27:40.331Z,40.47
2023-03-17T17:30:15.478Z,40.34
2023-03-17T17:32:47.538Z,40.31
2023-03-17T17:35:19.987Z,40.42
2023-03-17T17:37:51.191Z,40.36
2023-03-17T17:40:25.059Z,40.26
2023-03-17T17:42:56.937Z,40.26
2023-03-17T17:45:28.409Z,40.42
2023-03-17T17:47:59.760Z,40.60
2023-03-17T17:50:33.504Z,40.62
2023-03-17T17:53:08.981Z,40.62
2023-03-17T17:55:43.137Z,40.74
2023-03-17T17:58:16.136Z,40.64
2023-03-17T18:00:47.729Z,40.73
2023-03-17T18:03:22.443Z,40.83
2023-03-17T18:05:54.265Z,40.73
2023-03-17T18:08:26.885Z,40.81
2023-03-17T18:10:58.104Z,40.78
2023-03-17T18:13:29.782Z,40.87
2023-03-17T18:16:01.538Z,40.78
2023-03-17T18:18:32.910Z,40.85
2023-03-17T18:21:04.093Z,40.91
2023-03-17T18:23:36.544Z,40.95
2023-03-17T18:26:08.752Z,40.99
2023-03-17T18:28:40.151Z,40.98
2023-03-17T18:31:14.593Z,41.19
2023-03-17T18:33:47.080Z,41.17
2023-03-17T18:36:18.882Z,41.09
2023-03-17T18:38:50.095Z,41.16
2023-03-17T18:41:21.856Z,41.13
2023-03-17T18:43:53.425Z,41.13
2023-03-17T18:46:24.399Z,41.15
2023-03-17T18:48:55.732Z,41.25
2023-03-17T18:51:26.833Z,41.24
2023-03-17T18:53:57.976Z,41.31
2023-03-17T18:56:29.915Z,41.20
2023-03-17T18:59:01.610Z,41.16
2023-03-17T19:01:33.106Z,41.21
2023-03-17T19:04:05.799Z,41.16
2023-03-17T19:06:39.565Z,41.17
2023-03-17T19:09:11.398Z,41.10
2023-03-17T19:11:42.939Z,41.09
2023-03-17T19:14:14.143Z,40.93
2023-03-17T19:16:45.186Z,40.94
2023-03-17T19:19:16.238Z,40.94
2023-03-17T19:21:47.351Z,41.00
2023-03-17T19:24:18.912Z,40.94
2023-03-17T19:26:50.065Z,40.97
2023-03-17T19:29:21.092Z,40.89
2023-03-17T19:31:52.243Z,40.82
2023-03-17T19:34:24.162Z,40.87
2023-03-17T19:36:55.970Z,40.86
2023-03-17T19:39:27.376Z,40.94
2023-03-17T19:41:59.412Z,40.84
2023-03-17T19:44:30.770Z,40.74
2023-03-17T19:47:05.201Z,40.65
2023-03-17T19:49:36.703Z,40.65
2023-03-17T19:52:09.756Z,40.63
2023-03-17T19:54:44.733Z,40.66
2023-03-17T19:57:17.037Z,40.64
2023-03-17T19:59:48.384Z,40.67
2023-03-17T20:02:20.744Z,40.59
2023-03-17T20:04:52.605Z,40.73
2023-03-17T20:07:24.383Z,40.79
2023-03-17T20:09:55.914Z,40.79
2023-03-17T20:12:27.499Z,40.79
2023-03-17T20:15:00.168Z,40.85
2023-03-17T20:17:31.823Z,40.87
2023-03-17T20:20:03.797Z,40.89
2023-03-17T20:22:35.447Z,41.01
2023-03-17T20:25:08.877Z,41.08
2023-03-17T20:27:40.985Z,41.03
2023-03-17T20:30:14.731Z,40.95
2023-03-17T20:32:46.628Z,41.08
2023-03-17T20:35:18.890Z,41.15
2023-03-17T20:37:51.104Z,41.11
2023-03-17T20:40:22.744Z,41.09
2023-03-17T20:42:54.525Z,41.24
2023-03-17T20:45:26.346Z,41.19
2023-03-17T20:47:57.922Z,41.21
2023-03-17T20:50:29.419Z,41.22
2023-03-17T20:53:00.747Z,41.13
2023-03-17T20:55:32.218Z,41.19
2023-03-17T20:58:04.046Z,41.07
2023-03-17T21:00:35.669Z,40.92
2023-03-17T21:03:07.634Z,40.93
2023-03-17T21:05:39.888Z,40.79
2023-03-17T21:08:11.644Z,40.78
2023-03-17T21:10:43.036Z,40.80
2023-03-17T21:13:14.360Z,40.82
2023-03-17T21:15:45.874Z,40.77
2023-03-17T21:18:17.257Z,40.72
2023-03-17T21:20:49.134Z,40.69
2023-03-17T21:23:20.763Z,40.73
2023-03-17T21:25:57.724Z,40.63
2023-03-17T21:28:28.988Z,40.62
2023-03-17T21:31:00.740Z,40.58
2023-03-17T21:33:33.742Z,40.58
2023-03-17T21:36:05.782Z,40.70
2023-03-17T21:38:37.730Z,40.75
2023-03-17T21:41:24.477Z,40.71
2023-03-17T21:43:56.378Z,41.04
2023-03-17T21:46:28.894Z,41.10
2023-03-17T21:49:01.795Z,41.17
2023-03-17T21:51:33.860Z,41.29
2023-03-17T21:54:06.648Z,41.20
2023-03-17T21:56:38.766Z,41.10
2023-03-17T21:59:11.184Z,41.00
2023-03-17T22:01:43.977Z,40.88
2023-03-17T22:04:15.979Z,40.90
2023-03-17T22:06:47.246Z,40.90
2023-03-17T22:09:19.503Z,40.79
2023-03-17T22:11:51.049Z,40.84
2023-03-17T22:14:22.456Z,40.89
2023-03-17T22:16:53.919Z,40.83
2023-03-17T22:19:25.127Z,40.82
2023-03-17T22:21:57.189Z,41.07
2023-03-17T22:24:29.093Z,41.14
2023-03-17T22:27:00.785Z,41.08
2023-03-17T22:29:34.080Z,41.18
2023-03-17T22:32:06.205Z,41.30
2023-03-17T22:34:38.556Z,41.03
2023-03-17T22:37:10.679Z,40.90
2023-03-17T22:39:42.022Z,40.98
2023-03-17T22:42:13.821Z,40.99
2023-03-17T22:44:46.243Z,41.08
2023-03-17T22:47:17.502Z,40.93
2023-03-17T22:49:49.418Z,40.63
2023-03-17T22:52:21.442Z,40.49
2023-03-17T22:54:52.682Z,40.44
2023-03-17T22:57:24.650Z,40.35
2023-03-17T22:59:57.236Z,40.25
2023-03-17T23:02:29.677Z,40.28
2023-03-17T23:05:00.984Z,40.23
2023-03-17T23:07:47.878Z,40.15
2023-03-17T23:10:24.549Z,40.02
2023-03-17T23:12:55.785Z,39.96
2023-03-17T23:15:28.957Z,39.91
2023-03-17T23:18:00.548Z,39.99
2023-03-17T23:20:31.914Z,40.04
2023-03-17T23:23:03.930Z,39.92
2023-03-17T23:25:35.743Z,39.97
2023-03-17T23:28:08.270Z,39.99
2023-03-17T23:30:41.126Z,40.05
2023-03-17T23:33:13.584Z,39.91
2023-03-17T23:35:44.848Z,39.91
2023-03-17T23:38:16.347Z,39.86
2023-03-17T23:40:48.340Z,39.88
2023-03-17T23:43:20.470Z,39.91
2023-03-17T23:45:54.230Z,39.70
2023-03-17T23:48:25.487Z,39.84
2023-03-17T23:50:57.371Z,39.78
2023-03-17T23:53:29.287Z,39.80
2023-03-17T23:56:01.336Z,39.83
2023-03-17T23:58:33.600Z,39.76
